sensor_id;sensor_type;location;lat;lon;timestamp;pressure;altitude;pressure_sealevel;temperature;humidity
49759;BME280;70329;45.524;10.194;2024-03-08T09:41:23;100211.91;;;10.42;100.00
49759;BME280;70329;45.524;10.194;2024-03-08T09:43:50;100216.56;;;10.46;100.00
49759;BME280;70329;45.524;10.194;2024-03-08T09:46:17;100207.25;;;10.58;100.00
49759;BME280;70329;45.524;10.194;2024-03-08T09:48:45;100205.03;;;10.70;100.00
49759;BME280;70329;45.524;10.194;2024-03-08T09:51:12;100209.69;;;10.64;100.00
49759;BME280;70329;45.524;10.194;2024-03-08T09:53:40;100201.22;;;10.66;100.00
49759;BME280;70329;45.524;10.194;2024-03-08T09:56:07;100201.22;;;10.56;100.00
49759;BME280;70329;45.524;10.194;2024-03-08T09:58:35;100213.28;;;10.60;100.00
49759;BME280;70329;45.524;10.194;2024-03-08T10:01:20;100217.38;;;10.77;100.00
49759;BME280;70329;45.524;10.194;2024-03-08T10:03:47;100215.72;;;10.81;100.00
49759;BME280;70329;45.524;10.194;2024-03-08T10:06:14;100226.41;;;10.83;100.00
49759;BME280;70329;45.524;10.194;2024-03-08T10:08:41;100217.63;;;10.81;100.00
49759;BME280;70329;45.524;10.194;2024-03-08T10:11:07;100223.69;;;10.83;100.00
49759;BME280;70329;45.524;10.194;2024-03-08T10:13:39;100218.72;;;10.90;100.00
49759;BME280;70329;45.524;10.194;2024-03-08T10:16:06;100213.25;;;10.70;100.00
49759;BME280;70329;45.524;10.194;2024-03-08T10:18:34;100205.88;;;10.65;100.00
49759;BME280;70329;45.524;10.194;2024-03-08T10:21:03;100215.72;;;10.56;100.00
49759;BME280;70329;45.524;10.194;2024-03-08T10:23:30;100214.38;;;10.43;100.00
49759;BME280;70329;45.524;10.194;2024-03-08T10:26:09;100215.47;;;10.42;100.00
49759;BME280;70329;45.524;10.194;2024-03-08T10:28:36;100219.84;;;10.38;100.00
49759;BME280;70329;45.524;10.194;2024-03-08T10:31:04;100229.16;;;10.37;100.00
49759;BME280;70329;45.524;10.194;2024-03-08T10:33:31;100222.84;;;10.27;100.00
49759;BME280;70329;45.524;10.194;2024-03-08T10:35:58;100216.81;;;10.25;100.00
49759;BME280;70329;45.524;10.194;2024-03-08T10:38:26;100226.66;;;10.16;100.00
49759;BME280;70329;45.524;10.194;2024-03-08T10:40:53;100228.03;;;10.13;100.00
49759;BME280;70329;45.524;10.194;2024-03-08T10:43:23;100229.63;;;10.09;100.00
49759;BME280;70329;45.524;10.194;2024-03-08T10:45:54;100222.50;;;10.08;100.00
49759;BME280;70329;45.524;10.194;2024-03-08T10:48:30;100231.28;;;10.10;100.00
49759;BME280;70329;45.524;10.194;2024-03-08T10:50:58;100227.75;;;10.15;100.00
49759;BME280;70329;45.524;10.194;2024-03-08T10:53:27;100222.78;;;10.07;100.00
49759;BME280;70329;45.524;10.194;2024-03-08T10:55:56;100220.88;;;10.07;100.00
49759;BME280;70329;45.524;10.194;2024-03-08T10:58:24;100224.13;;;9.99;100.00
49759;BME280;70329;45.524;10.194;2024-03-08T11:00:52;100224.19;;;10.14;100.00
49759;BME280;70329;45.524;10.194;2024-03-08T11:03:45;100223.66;;;10.22;100.00
49759;BME280;70329;45.524;10.194;2024-03-08T11:06:15;100230.78;;;10.28;100.00
49759;BME280;70329;45.524;10.194;2024-03-08T11:08:43;100226.69;;;10.41;100.00
49759;BME280;70329;45.524;10.194;2024-03-08T11:11:24;100219.84;;;10.43;100.00
49759;BME280;70329;45.524;10.194;2024-03-08T11:13:52;100225.03;;;10.45;100.00
49759;BME280;70329;45.524;10.194;2024-03-08T11:16:37;100217.66;;;10.45;100.00
49759;BME280;70329;45.524;10.194;2024-03-08T11:19:27;100213.00;;;10.51;100.00
49759;BME280;70329;45.524;10.194;2024-03-08T11:22:01;100209.44;;;10.71;100.00
49759;BME280;70329;45.524;10.194;2024-03-08T11:24:28;100205.03;;;10.80;100.00
49759;BME280;70329;45.524;10.194;2024-03-08T11:27:03;100205.31;;;10.88;100.00
49759;BME280;70329;45.524;10.194;2024-03-08T11:29:34;100205.84;;;10.90;100.00
49759;BME280;70329;45.524;10.194;2024-03-08T11:32:05;100192.94;;;11.01;100.00
49759;BME280;70329;45.524;10.194;2024-03-08T11:34:35;100186.94;;;10.94;100.00
49759;BME280;70329;45.524;10.194;2024-03-08T11:37:04;100188.47;;;11.25;100.00
49759;BME280;70329;45.524;10.194;2024-03-08T11:39:29;100183.06;;;11.05;100.00
49759;BME280;70329;45.524;10.194;2024-03-08T11:41:56;100186.94;;;10.79;100.00
49759;BME280;70329;45.524;10.194;2024-03-08T11:44:26;100184.75;;;10.76;100.00
49759;BME280;70329;45.524;10.194;2024-03-08T11:46:53;100174.91;;;10.80;100.00
49759;BME280;70329;45.524;10.194;2024-03-08T11:49:20;100175.41;;;10.92;100.00
49759;BME280;70329;45.524;10.194;2024-03-08T11:51:51;100176.03;;;10.69;100.00
49759;BME280;70329;45.524;10.194;2024-03-08T11:54:19;100168.06;;;10.82;100.00
49759;BME280;70329;45.524;10.194;2024-03-08T11:56:46;100167.75;;;10.84;100.00
49759;BME280;70329;45.524;10.194;2024-03-08T11:59:13;100166.41;;;10.81;100.00
49759;BME280;70329;45.524;10.194;2024-03-08T12:01:40;100168.63;;;10.74;100.00
49759;BME280;70329;45.524;10.194;2024-03-08T12:04:06;100161.16;;;10.95;100.00
49759;BME280;70329;45.524;10.194;2024-03-08T12:06:37;100158.63;;;11.19;100.00
49759;BME280;70329;45.524;10.194;2024-03-08T12:09:08;100158.91;;;11.17;100.00
49759;BME280;70329;45.524;10.194;2024-03-08T12:11:36;100167.56;;;11.39;100.00
49759;BME280;70329;45.524;10.194;2024-03-08T12:14:03;100156.13;;;11.27;100.00
49759;BME280;70329;45.524;10.194;2024-03-08T12:16:29;100161.84;;;11.31;100.00
49759;BME280;70329;45.524;10.194;2024-03-08T12:18:56;100163.84;;;11.15;100.00
49759;BME280;70329;45.524;10.194;2024-03-08T12:21:23;100153.22;;;10.98;100.00
49759;BME280;70329;45.524;10.194;2024-03-08T12:24:14;100154.06;;;10.94;100.00
49759;BME280;70329;45.524;10.194;2024-03-08T12:26:42;100156.22;;;11.02;100.00
49759;BME280;70329;45.524;10.194;2024-03-08T12:29:15;100147.13;;;11.11;100.00
49759;BME280;70329;45.524;10.194;2024-03-08T12:31:43;100150.09;;;11.25;100.00
49759;BME280;70329;45.524;10.194;2024-03-08T12:34:10;100150.13;;;11.15;100.00
49759;BME280;70329;45.524;10.194;2024-03-08T12:36:44;100149.00;;;11.26;100.00
49759;BME280;70329;45.524;10.194;2024-03-08T12:39:16;100142.44;;;11.22;100.00
49759;BME280;70329;45.524;10.194;2024-03-08T12:41:43;100142.19;;;11.19;100.00
49759;BME280;70329;45.524;10.194;2024-03-08T12:44:10;100148.50;;;11.19;100.00
49759;BME280;70329;45.524;10.194;2024-03-08T12:46:37;100145.25;;;11.02;100.00
49759;BME280;70329;45.524;10.194;2024-03-08T12:49:08;100134.81;;;11.09;100.00
49759;BME280;70329;45.524;10.194;2024-03-08T12:51:36;100131.25;;;11.08;100.00
49759;BME280;70329;45.524;10.194;2024-03-08T12:54:04;100122.41;;;11.27;100.00
49759;BME280;70329;45.524;10.194;2024-03-08T12:56:35;100122.38;;;11.32;100.00
49759;BME280;70329;45.524;10.194;2024-03-08T12:59:03;100121.75;;;11.50;100.00
49759;BME280;70329;45.524;10.194;2024-03-08T13:01:30;100117.88;;;11.51;100.00
49759;BME280;70329;45.524;10.194;2024-03-08T13:03:58;100116.56;;;11.43;100.00
49759;BME280;70329;45.524;10.194;2024-03-08T13:06:25;100114.47;;;11.20;100.00
49759;BME280;70329;45.524;10.194;2024-03-08T13:08:52;100114.34;;;10.91;100.00
49759;BME280;70329;45.524;10.194;2024-03-08T13:11:20;100111.84;;;10.90;100.00
49759;BME280;70329;45.524;10.194;2024-03-08T13:13:51;100107.94;;;11.16;100.00
49759;BME280;70329;45.524;10.194;2024-03-08T13:16:19;100115.59;;;11.14;100.00
49759;BME280;70329;45.524;10.194;2024-03-08T13:18:46;100109.34;;;11.03;100.00
49759;BME280;70329;45.524;10.194;2024-03-08T13:21:14;100118.44;;;10.94;100.00
49759;BME280;70329;45.524;10.194;2024-03-08T13:23:43;100115.69;;;10.89;100.00
49759;BME280;70329;45.524;10.194;2024-03-08T13:26:12;100110.53;;;10.77;100.00
49759;BME280;70329;45.524;10.194;2024-03-08T13:28:40;100109.97;;;10.85;100.00
49759;BME280;70329;45.524;10.194;2024-03-08T13:31:08;100106.16;;;10.76;100.00
49759;BME280;70329;45.524;10.194;2024-03-08T13:33:36;100110.81;;;10.71;100.00
49759;BME280;70329;45.524;10.194;2024-03-08T13:36:05;100111.34;;;10.83;100.00
49759;BME280;70329;45.524;10.194;2024-03-08T13:38:32;100107.22;;;10.85;100.00
49759;BME280;70329;45.524;10.194;2024-03-08T13:40:59;100100.63;;;10.86;100.00
49759;BME280;70329;45.524;10.194;2024-03-08T13:43:25;100099.25;;;10.94;100.00
49759;BME280;70329;45.524;10.194;2024-03-08T13:45:54;100093.50;;;10.90;100.00
49759;BME280;70329;45.524;10.194;2024-03-08T13:48:22;100091.84;;;10.94;100.00
49759;BME280;70329;45.524;10.194;2024-03-08T13:50:49;100089.63;;;11.01;100.00
49759;BME280;70329;45.524;10.194;2024-03-08T13:53:17;100086.06;;;11.01;100.00
49759;BME280;70329;45.524;10.194;2024-03-08T13:55:43;100081.47;;;10.91;100.00
49759;BME280;70329;45.524;10.194;2024-03-08T13:58:10;100078.47;;;10.83;100.00
49759;BME280;70329;45.524;10.194;2024-03-08T14:00:39;100072.41;;;10.91;100.00
49759;BME280;70329;45.524;10.194;2024-03-08T14:03:09;100069.38;;;10.92;100.00
49759;BME280;70329;45.524;10.194;2024-03-08T14:05:39;100065.00;;;10.86;100.00
49759;BME280;70329;45.524;10.194;2024-03-08T14:08:08;100061.28;;;10.57;100.00
49759;BME280;70329;45.524;10.194;2024-03-08T14:10:34;100058.81;;;10.61;100.00
49759;BME280;70329;45.524;10.194;2024-03-08T14:13:02;100047.28;;;10.69;100.00
49759;BME280;70329;45.524;10.194;2024-03-08T14:15:30;100039.63;;;10.66;100.00
49759;BME280;70329;45.524;10.194;2024-03-08T14:17:57;100040.69;;;10.70;100.00
49759;BME280;70329;45.524;10.194;2024-03-08T14:20:23;100036.81;;;10.81;100.00
49759;BME280;70329;45.524;10.194;2024-03-08T14:22:52;100037.63;;;10.91;100.00
49759;BME280;70329;45.524;10.194;2024-03-08T14:25:20;100030.19;;;10.92;100.00
49759;BME280;70329;45.524;10.194;2024-03-08T14:27:49;100033.28;;;10.75;100.00
49759;BME280;70329;45.524;10.194;2024-03-08T14:30:19;100027.53;;;10.77;100.00
49759;BME280;70329;45.524;10.194;2024-03-08T14:32:57;100041.47;;;10.85;100.00
49759;BME280;70329;45.524;10.194;2024-03-08T14:35:25;100035.72;;;10.82;100.00
49759;BME280;70329;45.524;10.194;2024-03-08T14:37:53;100034.31;;;10.89;100.00
49759;BME280;70329;45.524;10.194;2024-03-08T14:40:19;100029.38;;;10.96;100.00
49759;BME280;70329;45.524;10.194;2024-03-08T14:42:47;100031.53;;;11.04;100.00
49759;BME280;70329;45.524;10.194;2024-03-08T14:45:14;100030.38;;;11.16;100.00
49759;BME280;70329;45.524;10.194;2024-03-08T14:47:41;100034.53;;;11.03;100.00
49759;BME280;70329;45.524;10.194;2024-03-08T14:50:08;100026.94;;;10.85;100.00
49759;BME280;70329;45.524;10.194;2024-03-08T14:52:35;100020.16;;;10.77;100.00
49759;BME280;70329;45.524;10.194;2024-03-08T14:55:07;100024.28;;;10.65;100.00
49759;BME280;70329;45.524;10.194;2024-03-08T14:57:33;100013.41;;;10.49;100.00
49759;BME280;70329;45.524;10.194;2024-03-08T15:00:01;100022.47;;;10.35;100.00
49759;BME280;70329;45.524;10.194;2024-03-08T15:02:31;100018.94;;;10.29;100.00
49759;BME280;70329;45.524;10.194;2024-03-08T15:05:02;100017.56;;;10.22;100.00
49759;BME280;70329;45.524;10.194;2024-03-08T15:07:34;100013.22;;;10.16;100.00
49759;BME280;70329;45.524;10.194;2024-03-08T15:10:00;100015.66;;;10.17;100.00
49759;BME280;70329;45.524;10.194;2024-03-08T15:12:29;100014.03;;;10.21;100.00
49759;BME280;70329;45.524;10.194;2024-03-08T15:14:55;100010.44;;;10.26;100.00
49759;BME280;70329;45.524;10.194;2024-03-08T15:17:22;100014.25;;;10.25;100.00
49759;BME280;70329;45.524;10.194;2024-03-08T15:19:49;100014.81;;;10.32;100.00
49759;BME280;70329;45.524;10.194;2024-03-08T15:22:17;100014.00;;;10.26;100.00
49759;BME280;70329;45.524;10.194;2024-03-08T15:24:43;100013.75;;;10.18;100.00
49759;BME280;70329;45.524;10.194;2024-03-08T15:27:10;100010.72;;;10.09;100.00
49759;BME280;70329;45.524;10.194;2024-03-08T15:29:38;100009.06;;;10.08;100.00
49759;BME280;70329;45.524;10.194;2024-03-08T15:32:05;100005.53;;;10.08;100.00
49759;BME280;70329;45.524;10.194;2024-03-08T15:34:32;100004.16;;;10.20;100.00
49759;BME280;70329;45.524;10.194;2024-03-08T15:37:03;100009.59;;;10.30;100.00
49759;BME280;70329;45.524;10.194;2024-03-08T15:39:30;99999.75;;;10.34;100.00
49759;BME280;70329;45.524;10.194;2024-03-08T15:41:58;100004.69;;;10.27;100.00
49759;BME280;70329;45.524;10.194;2024-03-08T15:44:25;100009.88;;;10.34;100.00
49759;BME280;70329;45.524;10.194;2024-03-08T15:46:55;100010.16;;;10.32;100.00
49759;BME280;70329;45.524;10.194;2024-03-08T15:49:21;100010.16;;;10.22;100.00
49759;BME280;70329;45.524;10.194;2024-03-08T15:51:49;100013.44;;;10.19;100.00
49759;BME280;70329;45.524;10.194;2024-03-08T15:54:16;100020.06;;;10.13;100.00
49759;BME280;70329;45.524;10.194;2024-03-08T15:56:42;100017.00;;;10.10;100.00
49759;BME280;70329;45.524;10.194;2024-03-08T15:59:09;100021.94;;;10.03;100.00
49759;BME280;70329;45.524;10.194;2024-03-08T16:01:36;100024.09;;;10.11;100.00
49759;BME280;70329;45.524;10.194;2024-03-08T16:04:04;100013.47;;;10.04;100.00
49759;BME280;70329;45.524;10.194;2024-03-08T16:06:32;100016.75;;;9.96;100.00
49759;BME280;70329;45.524;10.194;2024-03-08T16:08:59;100013.47;;;9.99;100.00
49759;BME280;70329;45.524;10.194;2024-03-08T16:11:26;100017.56;;;10.02;100.00
49759;BME280;70329;45.524;10.194;2024-03-08T16:13:54;100004.72;;;10.02;100.00
49759;BME280;70329;45.524;10.194;2024-03-08T16:16:21;100010.44;;;10.01;100.00
49759;BME280;70329;45.524;10.194;2024-03-08T16:18:48;100002.78;;;10.03;100.00
49759;BME280;70329;45.524;10.194;2024-03-08T16:21:16;100004.44;;;10.04;100.00
49759;BME280;70329;45.524;10.194;2024-03-08T16:23:43;99998.13;;;10.03;100.00
49759;BME280;70329;45.524;10.194;2024-03-08T16:26:11;99998.97;;;9.93;100.00
49759;BME280;70329;45.524;10.194;2024-03-08T16:28:38;100001.16;;;9.91;100.00
49759;BME280;70329;45.524;10.194;2024-03-08T16:31:06;99993.25;;;9.90;100.00
49759;BME280;70329;45.524;10.194;2024-03-08T16:33:35;99992.13;;;9.91;100.00
49759;BME280;70329;45.524;10.194;2024-03-08T16:36:03;100002.81;;;9.92;100.00
49759;BME280;70329;45.524;10.194;2024-03-08T16:38:31;99982.31;;;9.85;100.00
49759;BME280;70329;45.524;10.194;2024-03-08T16:41:01;99992.69;;;9.93;100.00
49759;BME280;70329;45.524;10.194;2024-03-08T16:43:29;99995.69;;;9.91;100.00
49759;BME280;70329;45.524;10.194;2024-03-08T16:45:57;99992.97;;;9.97;100.00
49759;BME280;70329;45.524;10.194;2024-03-08T16:48:26;99999.78;;;9.94;100.00
49759;BME280;70329;45.524;10.194;2024-03-08T16:50:55;99992.97;;;9.86;100.00
49759;BME280;70329;45.524;10.194;2024-03-08T16:53:21;99992.69;;;9.83;100.00
49759;BME280;70329;45.524;10.194;2024-03-08T16:55:50;99991.88;;;9.82;100.00
49759;BME280;70329;45.524;10.194;2024-03-08T16:58:18;99984.75;;;9.86;100.00
49759;BME280;70329;45.524;10.194;2024-03-08T17:00:46;99983.94;;;9.86;100.00
49759;BME280;70329;45.524;10.194;2024-03-08T17:03:13;99987.75;;;9.75;100.00
49759;BME280;70329;45.524;10.194;2024-03-08T17:05:39;99986.16;;;9.74;100.00
49759;BME280;70329;45.524;10.194;2024-03-08T17:08:10;99983.13;;;9.75;100.00
49759;BME280;70329;45.524;10.194;2024-03-08T17:10:37;99980.38;;;9.75;100.00
49759;BME280;70329;45.524;10.194;2024-03-08T17:13:06;99979.84;;;9.78;100.00
49759;BME280;70329;45.524;10.194;2024-03-08T17:15:33;99978.47;;;9.76;100.00
49759;BME280;70329;45.524;10.194;2024-03-08T17:18:01;99978.47;;;9.81;100.00
49759;BME280;70329;45.524;10.194;2024-03-08T17:20:31;99974.09;;;9.75;100.00
49759;BME280;70329;45.524;10.194;2024-03-08T17:23:02;99972.47;;;9.74;100.00
49759;BME280;70329;45.524;10.194;2024-03-08T17:25:34;99979.31;;;9.76;100.00
49759;BME280;70329;45.524;10.194;2024-03-08T17:28:03;99976.00;;;9.74;100.00
49759;BME280;70329;45.524;10.194;2024-03-08T17:30:32;99975.47;;;9.67;100.00
49759;BME280;70329;45.524;10.194;2024-03-08T17:33:04;99968.09;;;9.68;100.00
49759;BME280;70329;45.524;10.194;2024-03-08T17:35:34;99976.56;;;9.76;100.00
49759;BME280;70329;45.524;10.194;2024-03-08T17:38:04;99963.97;;;9.75;100.00
49759;BME280;70329;45.524;10.194;2024-03-08T17:40:36;99967.53;;;9.81;100.00
49759;BME280;70329;45.524;10.194;2024-03-08T17:43:07;99970.56;;;9.79;100.00
49759;BME280;70329;45.524;10.194;2024-03-08T17:45:41;99963.72;;;9.82;100.00
49759;BME280;70329;45.524;10.194;2024-03-08T17:48:10;99969.44;;;9.90;100.00
49759;BME280;70329;45.524;10.194;2024-03-08T17:50:42;99965.59;;;9.91;100.00
49759;BME280;70329;45.524;10.194;2024-03-08T17:53:09;99974.91;;;9.90;100.00
49759;BME280;70329;45.524;10.194;2024-03-08T17:55:37;99976.81;;;9.80;100.00
49759;BME280;70329;45.524;10.194;2024-03-08T17:58:07;99973.84;;;9.76;100.00
49759;BME280;70329;45.524;10.194;2024-03-08T18:00:35;99973.03;;;9.71;100.00
49759;BME280;70329;45.524;10.194;2024-03-08T18:03:06;99970.81;;;9.78;100.00
49759;BME280;70329;45.524;10.194;2024-03-08T18:05:35;99969.47;;;9.70;100.00
49759;BME280;70329;45.524;10.194;2024-03-08T18:08:04;99970.28;;;9.71;100.00
49759;BME280;70329;45.524;10.194;2024-03-08T18:10:33;99978.19;;;9.72;100.00
49759;BME280;70329;45.524;10.194;2024-03-08T18:13:01;99975.47;;;9.72;100.00
49759;BME280;70329;45.524;10.194;2024-03-08T18:15:37;99979.56;;;9.75;100.00
49759;BME280;70329;45.524;10.194;2024-03-08T18:18:06;99980.09;;;9.72;100.00
49759;BME280;70329;45.524;10.194;2024-03-08T18:20:35;99982.03;;;9.71;100.00
49759;BME280;70329;45.524;10.194;2024-03-08T18:23:12;99980.69;;;9.74;100.00
49759;BME280;70329;45.524;10.194;2024-03-08T18:25:40;99986.94;;;9.74;100.00
49759;BME280;70329;45.524;10.194;2024-03-08T18:28:07;99985.84;;;9.75;100.00
49759;BME280;70329;45.524;10.194;2024-03-08T18:30:35;99980.66;;;9.79;100.00
49759;BME280;70329;45.524;10.194;2024-03-08T18:33:03;99986.41;;;9.87;100.00
49759;BME280;70329;45.524;10.194;2024-03-08T18:35:31;99985.59;;;9.82;100.00
49759;BME280;70329;45.524;10.194;2024-03-08T18:37:58;99986.66;;;9.81;100.00
49759;BME280;70329;45.524;10.194;2024-03-08T18:40:27;99985.31;;;9.83;100.00
49759;BME280;70329;45.524;10.194;2024-03-08T18:42:54;99986.66;;;9.86;100.00
49759;BME280;70329;45.524;10.194;2024-03-08T18:45:24;99993.25;;;9.85;100.00
49759;BME280;70329;45.524;10.194;2024-03-08T18:47:52;99989.69;;;9.79;100.00
49759;BME280;70329;45.524;10.194;2024-03-08T18:50:22;99984.75;;;9.81;100.00
49759;BME280;70329;45.524;10.194;2024-03-08T18:52:51;99991.31;;;9.90;100.00
49759;BME280;70329;45.524;10.194;2024-03-08T18:55:19;99992.41;;;9.89;100.00
49759;BME280;70329;45.524;10.194;2024-03-08T18:57:49;99988.59;;;9.90;100.00
49759;BME280;70329;45.524;10.194;2024-03-08T19:00:18;99989.69;;;9.89;100.00
49759;BME280;70329;45.524;10.194;2024-03-08T19:02:48;99985.28;;;9.88;100.00
49759;BME280;70329;45.524;10.194;2024-03-08T19:05:15;99992.97;;;9.86;100.00
49759;BME280;70329;45.524;10.194;2024-03-08T19:07:43;99988.31;;;9.82;100.00
49759;BME280;70329;45.524;10.194;2024-03-08T19:10:11;99984.19;;;9.74;100.00
49759;BME280;70329;45.524;10.194;2024-03-08T19:12:44;99987.75;;;9.75;100.00
49759;BME280;70329;45.524;10.194;2024-03-08T19:15:13;99995.44;;;9.68;100.00
49759;BME280;70329;45.524;10.194;2024-03-08T19:17:41;99999.53;;;9.70;100.00
49759;BME280;70329;45.524;10.194;2024-03-08T19:20:08;99999.81;;;9.54;100.00
49759;BME280;70329;45.524;10.194;2024-03-08T19:22:42;99997.63;;;9.51;100.00
49759;BME280;70329;45.524;10.194;2024-03-08T19:25:10;99998.41;;;9.41;100.00
49759;BME280;70329;45.524;10.194;2024-03-08T19:27:38;99998.16;;;9.38;100.00
49759;BME280;70329;45.524;10.194;2024-03-08T19:30:06;99992.66;;;9.32;100.00
49759;BME280;70329;45.524;10.194;2024-03-08T19:32:34;99991.84;;;9.22;100.00
49759;BME280;70329;45.524;10.194;2024-03-08T19:35:04;99996.75;;;9.25;100.00
49759;BME280;70329;45.524;10.194;2024-03-08T19:37:36;99997.31;;;9.17;100.00
49759;BME280;70329;45.524;10.194;2024-03-08T19:40:06;99989.69;;;9.24;100.00
49759;BME280;70329;45.524;10.194;2024-03-08T19:42:46;99988.03;;;9.23;100.00
49759;BME280;70329;45.524;10.194;2024-03-08T19:45:13;99996.47;;;9.21;100.00
49759;BME280;70329;45.524;10.194;2024-03-08T19:47:41;99987.44;;;9.16;100.00
49759;BME280;70329;45.524;10.194;2024-03-08T19:50:09;99991.84;;;9.17;100.00
49759;BME280;70329;45.524;10.194;2024-03-08T19:52:36;99983.63;;;9.17;100.00
49759;BME280;70329;45.524;10.194;2024-03-08T19:55:03;99982.28;;;9.14;100.00
49759;BME280;70329;45.524;10.194;2024-03-08T19:57:30;99987.44;;;9.06;100.00
49759;BME280;70329;45.524;10.194;2024-03-08T20:00:09;99979.78;;;9.03;100.00
49759;BME280;70329;45.524;10.194;2024-03-08T20:02:40;99990.19;;;9.06;100.00
49759;BME280;70329;45.524;10.194;2024-03-08T20:05:08;99992.91;;;9.06;100.00
49759;BME280;70329;45.524;10.194;2024-03-08T20:07:38;99988.56;;;9.10;100.00
49759;BME280;70329;45.524;10.194;2024-03-08T20:10:07;99991.53;;;9.13;100.00
49759;BME280;70329;45.524;10.194;2024-03-08T20:12:35;99991.00;;;9.06;100.00
49759;BME280;70329;45.524;10.194;2024-03-08T20:15:06;99990.97;;;8.96;100.00
49759;BME280;70329;45.524;10.194;2024-03-08T20:17:34;99991.53;;;8.98;100.00
49759;BME280;70329;45.524;10.194;2024-03-08T20:20:02;99989.88;;;8.97;100.00
49759;BME280;70329;45.524;10.194;2024-03-08T20:22:29;99990.13;;;8.91;100.00
49759;BME280;70329;45.524;10.194;2024-03-08T20:24:56;99989.56;;;8.89;100.00
49759;BME280;70329;45.524;10.194;2024-03-08T20:27:22;99996.69;;;8.85;100.00
49759;BME280;70329;45.524;10.194;2024-03-08T20:29:52;99987.66;;;8.84;100.00
49759;BME280;70329;45.524;10.194;2024-03-08T20:32:20;99987.13;;;8.82;100.00
49759;BME280;70329;45.524;10.194;2024-03-08T20:34:46;99986.81;;;8.78;100.00
49759;BME280;70329;45.524;10.194;2024-03-08T20:37:13;99985.97;;;8.68;100.00
49759;BME280;70329;45.524;10.194;2024-03-08T20:39:40;99985.69;;;8.64;100.00
49759;BME280;70329;45.524;10.194;2024-03-08T20:42:08;99981.84;;;8.65;100.00
49759;BME280;70329;45.524;10.194;2024-03-08T20:44:34;99979.69;;;8.62;100.00
49759;BME280;70329;45.524;10.194;2024-03-08T20:47:02;99987.56;;;8.59;100.00
49759;BME280;70329;45.524;10.194;2024-03-08T20:49:31;99984.53;;;8.55;100.00
49759;BME280;70329;45.524;10.194;2024-03-08T20:51:58;99988.13;;;8.66;100.00
49759;BME280;70329;45.524;10.194;2024-03-08T20:54:25;99984.63;;;8.70;100.00
49759;BME280;70329;45.524;10.194;2024-03-08T20:56:51;99981.06;;;8.65;100.00
49759;BME280;70329;45.524;10.194;2024-03-08T20:59:18;99971.50;;;8.67;100.00
49759;BME280;70329;45.524;10.194;2024-03-08T21:01:45;99965.19;;;8.62;100.00
49759;BME280;70329;45.524;10.194;2024-03-08T21:04:11;99960.00;;;8.65;100.00
49759;BME280;70329;45.524;10.194;2024-03-08T21:06:43;99955.13;;;8.67;100.00
49759;BME280;70329;45.524;10.194;2024-03-08T21:09:10;99955.69;;;8.79;100.00
49759;BME280;70329;45.524;10.194;2024-03-08T21:11:37;99955.69;;;8.79;100.00
49759;BME280;70329;45.524;10.194;2024-03-08T21:14:02;99966.34;;;8.81;100.00
49759;BME280;70329;45.524;10.194;2024-03-08T21:16:30;99952.69;;;8.81;100.00
49759;BME280;70329;45.524;10.194;2024-03-08T21:18:57;99963.09;;;8.79;100.00
49759;BME280;70329;45.524;10.194;2024-03-08T21:21:24;99958.47;;;8.90;100.00
49759;BME280;70329;45.524;10.194;2024-03-08T21:23:53;99955.72;;;8.95;100.00
49759;BME280;70329;45.524;10.194;2024-03-08T21:26:20;99945.63;;;8.90;100.00
49759;BME280;70329;45.524;10.194;2024-03-08T21:28:46;99940.72;;;8.92;100.00
49759;BME280;70329;45.524;10.194;2024-03-08T21:31:13;99945.09;;;8.93;100.00
49759;BME280;70329;45.524;10.194;2024-03-08T21:33:39;99946.72;;;8.99;100.00
49759;BME280;70329;45.524;10.194;2024-03-08T21:36:06;99943.72;;;8.96;100.00
49759;BME280;70329;45.524;10.194;2024-03-08T21:38:34;99948.06;;;8.92;100.00
49759;BME280;70329;45.524;10.194;2024-03-08T21:41:03;99947.53;;;8.95;100.00
49759;BME280;70329;45.524;10.194;2024-03-08T21:43:33;99944.81;;;8.95;100.00
49759;BME280;70329;45.524;10.194;2024-03-08T21:46:00;99940.72;;;8.97;100.00
49759;BME280;70329;45.524;10.194;2024-03-08T21:48:26;99944.81;;;8.95;100.00
49759;BME280;70329;45.524;10.194;2024-03-08T21:50:53;99933.88;;;8.95;100.00
49759;BME280;70329;45.524;10.194;2024-03-08T21:53:20;99920.50;;;8.93;100.00
49759;BME280;70329;45.524;10.194;2024-03-08T21:55:46;99913.69;;;9.01;100.00
49759;BME280;70329;45.524;10.194;2024-03-08T21:58:15;99903.59;;;9.01;100.00
49759;BME280;70329;45.524;10.194;2024-03-08T22:00:43;99914.22;;;8.98;100.00
49759;BME280;70329;45.524;10.194;2024-03-08T22:03:12;99910.66;;;8.87;100.00
49759;BME280;70329;45.524;10.194;2024-03-08T22:05:38;99909.31;;;8.90;100.00
49759;BME280;70329;45.524;10.194;2024-03-08T22:08:06;99899.22;;;8.95;100.00
49759;BME280;70329;45.524;10.194;2024-03-08T22:10:32;99909.06;;;9.01;100.00
49759;BME280;70329;45.524;10.194;2024-03-08T22:12:59;99904.38;;;8.97;100.00
49759;BME280;70329;45.524;10.194;2024-03-08T22:15:27;99909.00;;;8.91;100.00
49759;BME280;70329;45.524;10.194;2024-03-08T22:17:54;99899.50;;;8.99;100.00
49759;BME280;70329;45.524;10.194;2024-03-08T22:20:21;99885.25;;;9.02;100.00
49759;BME280;70329;45.524;10.194;2024-03-08T22:22:52;99880.09;;;9.00;100.00
49759;BME280;70329;45.524;10.194;2024-03-08T22:25:19;99882.00;;;9.05;100.00
49759;BME280;70329;45.524;10.194;2024-03-08T22:27:47;99872.44;;;9.02;100.00